Time;durP1;ratioP1;P1;durP2;ratioP2;P2;SDS_P1;SDS_P2;PMS_P1;PMS_P2;Temp;Humidity;BMP_temperature;BMP_pressure;BME280_temperature;BME280_humidity;BME280_pressure;Samples;Min_cycle;Max_cycle;Signal;HPM_P1;HPM_P2
2024/03/11 00:03:01;;;;;;;18.30;11.60;;;;;;;8.21;62.76;99606.86;130392;1274;107515;-80
2024/03/11 00:06:07;;;;;;;19.10;12.40;;;;;;;8.19;62.77;99606.23;130317;1269;108069;-80
2024/03/11 00:09:19;;;;;;;18.50;12.50;;;;;;;8.16;62.72;99604.55;130306;1260;106720;-81
2024/03/11 00:12:24;;;;;;;;;;;;;;;8.15;62.58;99604.71;130326;1264;106347;-81
2024/03/11 00:15:30;;;;;;;17.60;11.20;;;;;;;8.12;62.36;99598.95;130464;1264;107386;-82
2024/03/11 00:18:36;;;;;;;18.70;11.60;;;;;;;8.09;62.22;99604.09;130307;1264;108753;-81
2024/03/11 00:21:42;;;;;;;18.00;11.00;;;;;;;8.04;62.23;99603.66;130521;1260;106975;-82
2024/03/11 00:24:48;;;;;;;17.50;10.90;;;;;;;8.02;62.35;99605.79;130262;1260;108581;-80
2024/03/11 00:27:54;;;;;;;15.70;10.40;;;;;;;8.01;62.41;99604.69;130272;1264;108512;-80
2024/03/11 00:31:00;;;;;;;17.70;11.10;;;;;;;7.99;62.47;99606.98;130300;1260;107313;-80
2024/03/11 00:34:06;;;;;;;18.30;11.50;;;;;;;8.00;62.01;99606.95;130289;1260;107897;-80
2024/03/11 00:37:14;;;;;;;15.70;10.40;;;;;;;7.96;62.10;99603.08;130306;1264;108313;-80
2024/03/11 00:40:20;;;;;;;17.30;11.00;;;;;;;7.92;62.20;99608.09;130342;1269;106408;-80
2024/03/11 00:43:26;;;;;;;17.00;10.70;;;;;;;7.91;62.03;99602.84;130333;1260;107160;-80
2024/03/11 00:46:31;;;;;;;18.20;10.20;;;;;;;7.89;61.98;99594.75;130415;1261;108433;-80
2024/03/11 00:49:37;;;;;;;15.80;10.50;;;;;;;7.85;62.04;99593.86;130346;1261;107286;-80
2024/03/11 00:52:44;;;;;;;17.70;11.00;;;;;;;7.84;62.02;99594.45;130311;1264;108011;-80
2024/03/11 00:55:52;;;;;;;18.40;11.50;;;;;;;7.82;61.88;99590.98;130322;1264;107330;-80
2024/03/11 00:58:59;;;;;;;19.70;11.50;;;;;;;7.78;62.09;99591.02;130424;1269;106981;-80
2024/03/11 01:02:07;;;;;;;15.70;10.90;;;;;;;7.74;61.95;99587.30;130413;1264;106409;-81
2024/03/11 01:05:14;;;;;;;19.00;11.10;;;;;;;7.72;61.94;99585.37;130443;1258;106813;-80
2024/03/11 01:08:20;;;;;;;16.60;10.80;;;;;;;7.69;62.13;99585.84;130553;1262;107008;-80
2024/03/11 01:11:26;;;;;;;16.80;10.50;;;;;;;7.66;62.04;99576.91;130569;1264;107304;-80
2024/03/11 01:14:31;;;;;;;15.40;10.40;;;;;;;7.62;62.07;99587.92;130575;1259;107108;-80
2024/03/11 01:17:37;;;;;;;16.70;10.50;;;;;;;7.59;62.44;99585.14;130497;1262;107152;-80
2024/03/11 01:20:44;;;;;;;17.00;10.50;;;;;;;7.57;62.42;99578.55;130794;1258;107043;-82
2024/03/11 01:23:49;;;;;;;15.60;10.50;;;;;;;7.57;62.49;99578.94;130527;1261;108628;-82
2024/03/11 01:26:57;;;;;;;15.40;10.10;;;;;;;7.57;62.36;99578.73;130553;1260;107720;-82
2024/03/11 01:30:02;;;;;;;16.80;11.00;;;;;;;7.53;62.67;99581.46;130618;1261;106482;-82
2024/03/11 01:33:09;;;;;;;16.10;10.60;;;;;;;7.49;62.76;99577.03;130526;1262;107637;-82
2024/03/11 01:36:14;;;;;;;15.60;10.50;;;;;;;7.46;62.88;99572.56;130616;1261;106579;-79
2024/03/11 01:39:26;;;;;;;18.70;11.30;;;;;;;7.42;63.41;99576.57;130621;1262;109416;-79
2024/03/11 01:42:31;;;;;;;16.20;10.90;;;;;;;7.37;63.49;99573.59;130529;1259;107688;-80
2024/03/11 01:45:37;;;;;;;17.10;10.60;;;;;;;7.32;64.22;99576.35;130582;1259;107683;-80
2024/03/11 01:48:43;;;;;;;15.10;10.20;;;;;;;7.26;64.44;99568.13;130530;1258;106390;-82
2024/03/11 01:51:49;;;;;;;15.20;10.30;;;;;;;7.20;64.90;99559.44;130585;1258;106348;-80
2024/03/11 01:54:56;;;;;;;16.60;10.60;;;;;;;7.14;64.98;99558.97;130639;1262;107622;-80
2024/03/11 01:58:04;;;;;;;17.10;9.90;;;;;;;7.09;65.29;99553.67;130510;1260;107432;-82
2024/03/11 02:01:10;;;;;;;13.20;9.10;;;;;;;7.05;65.43;99552.27;130497;1260;107745;-80
2024/03/11 02:04:16;;;;;;;16.40;11.00;;;;;;;7.04;65.93;99550.04;130570;1263;105661;-80
2024/03/11 02:07:23;;;;;;;16.80;11.10;;;;;;;7.03;66.10;99549.59;130566;1259;107707;-80
2024/03/11 02:10:30;;;;;;;18.10;11.30;;;;;;;7.04;66.23;99552.54;130573;1262;107685;-80
2024/03/11 02:13:35;;;;;;;16.30;11.30;;;;;;;7.04;66.42;99552.71;130572;1262;106681;-80
2024/03/11 02:16:42;;;;;;;17.80;11.10;;;;;;;7.02;66.72;99553.59;130515;1262;108653;-80
2024/03/11 02:19:48;;;;;;;17.20;11.40;;;;;;;7.00;67.18;99554.20;130874;1259;107778;-80
2024/03/11 02:22:55;;;;;;;18.70;11.10;;;;;;;6.96;67.15;99556.14;130617;1259;107717;-80
2024/03/11 02:26:00;;;;;;;17.50;11.20;;;;;;;6.90;67.29;99552.27;130661;1262;108609;-80
2024/03/11 02:29:06;;;;;;;18.20;12.00;;;;;;;6.86;67.59;99553.74;130579;1261;106386;-79
2024/03/11 02:32:11;;;;;;;18.80;12.10;;;;;;;6.82;67.55;99552.52;130574;1259;107656;-80
2024/03/11 02:35:17;;;;;;;18.30;11.60;;;;;;;6.76;68.02;99544.05;130538;1262;106610;-80
2024/03/11 02:38:23;;;;;;;16.10;10.50;;;;;;;6.67;68.00;99545.40;130602;1259;109003;-82
2024/03/11 02:41:29;;;;;;;18.60;11.80;;;;;;;6.62;68.25;99548.59;130651;1258;108760;-80
2024/03/11 02:44:36;;;;;;;18.10;11.70;;;;;;;6.63;68.56;99545.27;130684;1259;107425;-80
2024/03/11 02:47:42;;;;;;;19.40;12.40;;;;;;;6.64;68.13;99546.91;130591;1262;107095;-80
2024/03/11 02:50:48;;;;;;;17.90;11.60;;;;;;;6.65;68.29;99541.55;130677;1262;107858;-80
2024/03/11 02:53:56;;;;;;;17.90;11.70;;;;;;;6.61;68.59;99544.23;130596;1260;107776;-80
2024/03/11 02:57:02;;;;;;;22.20;13.00;;;;;;;6.57;68.57;99546.22;130631;1259;108784;-80
2024/03/11 03:00:10;;;;;;;18.20;12.30;;;;;;;6.52;68.63;99543.30;130577;1259;108603;-80
2024/03/11 03:03:17;;;;;;;18.60;12.80;;;;;;;6.50;68.72;99546.70;130629;1259;109388;-80
2024/03/11 03:06:22;;;;;;;18.30;12.10;;;;;;;6.47;69.21;99546.39;130564;1258;106907;-80
2024/03/11 03:09:28;;;;;;;17.30;10.80;;;;;;;6.44;69.48;99545.67;130519;1262;106725;-80
2024/03/11 03:12:35;;;;;;;19.30;12.20;;;;;;;6.44;69.71;99544.81;130499;1261;107579;-80
2024/03/11 03:15:41;;;;;;;19.20;12.20;;;;;;;6.46;69.50;99547.05;130555;1260;107359;-80
2024/03/11 03:18:47;;;;;;;18.40;12.00;;;;;;;6.51;70.04;99540.44;130615;1262;108732;-80
2024/03/11 03:21:52;;;;;;;20.00;13.60;;;;;;;6.51;70.20;99533.71;130672;1258;105617;-80
2024/03/11 03:24:58;;;;;;;19.80;12.30;;;;;;;6.48;70.32;99524.92;130593;1264;107632;-80
2024/03/11 03:28:05;;;;;;;21.40;13.30;;;;;;;6.45;70.64;99527.08;130555;1261;107789;-80
2024/03/11 03:31:12;;;;;;;19.40;12.70;;;;;;;6.41;70.99;99525.48;130885;1260;109072;-80
2024/03/11 03:34:17;;;;;;;19.20;12.50;;;;;;;6.37;70.63;99526.50;130621;1259;107794;-80
2024/03/11 03:37:23;;;;;;;19.80;12.30;;;;;;;6.36;71.06;99523.64;130369;1261;108682;-79
2024/03/11 03:40:29;;;;;;;20.50;13.00;;;;;;;6.35;71.16;99520.71;130461;1259;107956;-79
2024/03/11 03:43:35;;;;;;;20.20;13.40;;;;;;;6.38;71.35;99522.40;130403;1261;108687;-79
2024/03/11 03:46:40;;;;;;;21.70;13.10;;;;;;;6.38;71.90;99517.13;130942;1259;106785;-78
2024/03/11 03:49:46;;;;;;;19.70;13.20;;;;;;;6.33;71.84;99518.45;130559;1262;107041;-78
2024/03/11 03:52:53;;;;;;;21.10;14.20;;;;;;;6.30;71.63;99518.02;130554;1262;106449;-78
2024/03/11 03:55:58;;;;;;;20.60;14.00;;;;;;;6.28;71.88;99519.20;130471;1258;108613;-78
2024/03/11 03:59:05;;;;;;;20.80;13.40;;;;;;;6.23;72.13;99524.24;130462;1262;106836;-78
2024/03/11 04:02:12;;;;;;;18.70;12.70;;;;;;;6.16;72.59;99521.92;130426;1262;106440;-78
2024/03/11 04:05:20;;;;;;;22.00;12.40;;;;;;;6.07;72.88;99527.69;130332;1262;108607;-79
2024/03/11 04:08:26;;;;;;;21.50;13.00;;;;;;;6.05;72.76;99528.25;130652;1259;107536;-78
2024/03/11 04:11:31;;;;;;;23.90;14.20;;;;;;;6.11;72.38;99529.86;130377;1262;108125;-78
2024/03/11 04:14:38;;;;;;;21.10;14.20;;;;;;;6.18;72.49;99529.56;130318;1262;106331;-78
2024/03/11 04:17:45;;;;;;;22.00;13.60;;;;;;;6.19;72.40;99524.80;130325;1262;108728;-78
2024/03/11 04:20:50;;;;;;;21.80;14.00;;;;;;;6.21;72.80;99524.31;130403;1259;107574;-78
2024/03/11 04:23:56;;;;;;;22.60;14.20;;;;;;;6.17;72.83;99526.23;130338;1259;108281;-78
2024/03/11 04:27:02;;;;;;;22.30;14.00;;;;;;;6.14;72.70;99527.83;130329;1259;106399;-78
2024/03/11 04:30:09;;;;;;;21.00;13.00;;;;;;;6.07;73.16;99531.09;130347;1259;108592;-80
2024/03/11 04:33:16;;;;;;;20.30;12.10;;;;;;;6.01;73.14;99534.08;130365;1263;108735;-78
2024/03/11 04:36:22;;;;;;;21.00;12.70;;;;;;;6.02;73.42;99534.70;130360;1262;107122;-78
2024/03/11 04:39:28;;;;;;;20.80;13.60;;;;;;;6.08;73.16;99532.89;130335;1262;107771;-78
2024/03/11 04:42:33;;;;;;;22.30;13.90;;;;;;;6.11;73.24;99532.64;130334;1259;108387;-78
2024/03/11 04:45:40;;;;;;;21.50;13.60;;;;;;;6.14;74.02;99534.11;130382;1259;109164;-78
2024/03/11 04:48:46;;;;;;;22.40;13.80;;;;;;;6.11;73.92;99534.56;130351;1262;108623;-78
2024/03/11 04:51:51;;;;;;;20.20;13.50;;;;;;;6.08;73.89;99532.09;130297;1262;107762;-78
2024/03/11 04:54:57;;;;;;;22.00;13.40;;;;;;;6.02;74.20;99530.12;130394;1262;108775;-78
2024/03/11 04:58:03;;;;;;;21.10;12.90;;;;;;;5.96;74.59;99530.52;130380;1262;108765;-78
2024/03/11 05:01:08;;;;;;;22.60;12.90;;;;;;;5.93;74.70;99532.74;130354;1259;108650;-78
2024/03/11 05:04:14;;;;;;;21.30;13.00;;;;;;;5.93;74.32;99534.98;130399;1262;108638;-77
2024/03/11 05:07:20;;;;;;;22.40;13.90;;;;;;;5.98;74.68;99533.55;130398;1259;107546;-79
2024/03/11 05:10:27;;;;;;;22.40;14.20;;;;;;;6.00;74.90;99538.23;130610;1259;106647;-78
2024/03/11 05:13:32;;;;;;;20.20;14.00;;;;;;;6.02;74.91;99543.75;130316;1262;108778;-80
2024/03/11 05:16:38;;;;;;;22.20;13.90;;;;;;;6.00;75.13;99542.67;130569;1259;107775;-78
2024/03/11 05:19:43;;;;;;;20.40;13.00;;;;;;;5.96;74.98;99546.08;130372;1262;108662;-78
2024/03/11 05:22:50;;;;;;;21.90;13.20;;;;;;;5.88;75.48;99551.79;130365;1259;109741;-79
2024/03/11 05:25:55;;;;;;;20.10;12.00;;;;;;;5.85;75.53;99557.09;130228;1260;108779;-79
2024/03/11 05:29:01;;;;;;;20.70;13.60;;;;;;;5.85;76.01;99550.68;130300;1262;107732;-79
2024/03/11 05:32:08;;;;;;;21.90;13.60;;;;;;;5.83;76.43;99550.21;130464;1260;108685;-79
2024/03/11 05:35:15;;;;;;;21.10;13.30;;;;;;;5.81;76.50;99555.30;130450;1260;107580;-79
2024/03/11 05:38:20;;;;;;;21.30;13.60;;;;;;;5.82;76.00;99552.97;130343;1262;107543;-79
2024/03/11 05:41:26;;;;;;;19.70;13.20;;;;;;;5.84;75.79;99556.30;130305;1260;107314;-79
2024/03/11 05:44:32;;;;;;;21.60;12.70;;;;;;;5.82;75.85;99551.48;130351;1262;106548;-79
2024/03/11 05:47:38;;;;;;;21.90;12.20;;;;;;;5.78;76.55;99541.45;130409;1262;107550;-79
2024/03/11 05:50:44;;;;;;;22.20;13.70;;;;;;;5.74;77.05;99540.61;130298;1262;108617;-79
2024/03/11 05:53:52;;;;;;;21.00;13.60;;;;;;;5.74;76.77;99537.61;130369;1262;107636;-81
2024/03/11 05:56:58;;;;;;;23.70;14.00;;;;;;;5.75;77.37;99534.38;130329;1261;107639;-80
2024/03/11 06:00:09;;;;;;;22.70;14.10;;;;;;;5.74;76.97;99530.75;130496;1259;107558;-81
2024/03/11 06:03:14;;;;;;;22.30;13.40;;;;;;;5.74;77.17;99531.30;130572;1261;106677;-82
2024/03/11 06:06:20;;;;;;;20.90;12.60;;;;;;;5.68;77.76;99535.86;130536;1261;106703;-82
2024/03/11 06:09:26;;;;;;;19.50;12.80;;;;;;;5.63;77.65;99539.44;130926;1259;108043;-82
2024/03/11 06:12:31;;;;;;;19.10;12.80;;;;;;;5.64;78.12;99541.52;130939;1258;106544;-81
2024/03/11 06:15:37;;;;;;;20.70;13.10;;;;;;;5.63;77.72;99546.16;130949;1262;109101;-82
2024/03/11 06:18:43;;;;;;;20.00;13.00;;;;;;;5.66;77.84;99542.33;130983;1262;107019;-82
2024/03/11 06:21:49;;;;;;;23.80;13.70;;;;;;;5.66;77.81;99555.94;130851;1262;107594;-82
2024/03/11 06:24:54;;;;;;;22.70;13.40;;;;;;;5.64;77.79;99559.86;130411;1262;106906;-82
2024/03/11 06:28:00;;;;;;;19.60;12.10;;;;;;;5.63;77.81;99562.63;130419;1262;107818;-81
2024/03/11 06:31:06;;;;;;;21.00;11.90;;;;;;;5.64;77.16;99563.06;130404;1262;107656;-82
2024/03/11 06:34:14;;;;;;;21.10;12.80;;;;;;;5.70;77.32;99565.61;130343;1259;107571;-81
2024/03/11 06:37:20;;;;;;;23.80;13.80;;;;;;;5.75;77.65;99557.48;130369;1259;107162;-82
2024/03/11 06:40:31;;;;;;;22.70;13.10;;;;;;;5.78;77.44;99554.74;130365;1262;107976;-81
2024/03/11 06:43:38;;;;;;;21.80;13.00;;;;;;;5.79;77.56;99555.19;130438;1262;107100;-81
2024/03/11 06:46:43;;;;;;;19.70;12.40;;;;;;;5.77;77.34;99565.02;130480;1259;107631;-82
2024/03/11 06:49:49;;;;;;;21.10;13.20;;;;;;;5.73;77.59;99574.02;130409;1259;106277;-81
2024/03/11 06:52:55;;;;;;;19.20;11.90;;;;;;;5.67;77.43;99572.40;130462;1262;107763;-79
2024/03/11 06:56:01;;;;;;;18.70;11.90;;;;;;;5.65;77.54;99573.91;130302;1261;108162;-79
2024/03/11 06:59:10;;;;;;;24.30;13.90;;;;;;;5.63;77.83;99582.52;130358;1262;108341;-79
2024/03/11 07:02:20;;;;;;;21.10;12.90;;;;;;;5.65;77.84;99584.98;130277;1262;107015;-79
2024/03/11 07:05:27;;;;;;;21.80;13.20;;;;;;;5.67;77.90;99584.50;130271;1260;107696;-79
2024/03/11 07:08:34;;;;;;;21.20;13.60;;;;;;;5.70;77.53;99592.00;130322;1259;107700;-79
2024/03/11 07:11:39;;;;;;;20.50;13.90;;;;;;;5.70;77.48;99597.63;130276;1260;108687;-79
2024/03/11 07:14:44;;;;;;;24.00;13.90;;;;;;;5.72;77.23;99598.84;130314;1260;107757;-79
2024/03/11 07:17:50;;;;;;;22.60;13.80;;;;;;;5.72;77.43;99598.96;130334;1262;105457;-79
2024/03/11 07:20:57;;;;;;;20.20;13.00;;;;;;;5.69;77.36;99598.38;130323;1262;108414;-78
2024/03/11 07:24:04;;;;;;;20.30;12.30;;;;;;;5.66;77.38;99602.20;130345;1262;106497;-78
2024/03/11 07:27:10;;;;;;;25.60;14.00;;;;;;;5.69;77.54;99603.10;130353;1261;107537;-78
2024/03/11 07:30:22;;;;;;;24.40;14.00;;;;;;;5.76;77.45;99611.17;130342;1264;107062;-78
2024/03/11 07:33:28;;;;;;;19.70;13.30;;;;;;;5.85;77.18;99615.32;130300;1259;106706;-79
2024/03/11 07:36:35;;;;;;;21.30;13.90;;;;;;;5.89;77.21;99611.56;130285;1262;108666;-79
2024/03/11 07:39:41;;;;;;;22.50;14.10;;;;;;;5.85;77.28;99612.87;130308;1262;106786;-78
2024/03/11 07:42:46;;;;;;;23.00;15.10;;;;;;;5.83;77.17;99615.14;130327;1259;108526;-79
2024/03/11 07:45:52;;;;;;;25.70;16.20;;;;;;;5.83;77.18;99617.73;130288;1264;108652;-79
2024/03/11 07:49:00;;;;;;;22.70;13.90;;;;;;;5.81;76.98;99618.81;130305;1259;107826;-79
2024/03/11 07:52:07;;;;;;;21.30;13.10;;;;;;;5.79;76.95;99619.52;130325;1262;108213;-79
2024/03/11 07:55:12;;;;;;;22.90;14.90;;;;;;;5.78;77.14;99628.88;130239;1262;107750;-79
2024/03/11 07:58:18;;;;;;;26.50;16.20;;;;;;;5.82;77.11;99631.48;130294;1262;108432;-79
2024/03/11 08:01:24;;;;;;;23.10;15.80;;;;;;;5.87;77.19;99626.64;130281;1262;106537;-81
2024/03/11 08:04:30;;;;;;;26.40;16.00;;;;;;;5.85;76.87;99632.59;130339;1259;107255;-79
2024/03/11 08:07:36;;;;;;;24.30;15.60;;;;;;;5.83;77.07;99627.62;130369;1261;108671;-79
2024/03/11 08:10:42;;;;;;;25.10;15.30;;;;;;;5.82;77.19;99631.99;130298;1259;107735;-79
2024/03/11 08:13:47;;;;;;;23.30;15.80;;;;;;;5.77;76.91;99624.30;130301;1262;108520;-79
2024/03/11 08:16:53;;;;;;;23.20;14.20;;;;;;;5.71;77.14;99628.00;130253;1262;107846;-79
2024/03/11 08:19:59;;;;;;;22.10;13.20;;;;;;;5.65;77.03;99629.30;130286;1259;108767;-79
2024/03/11 08:23:06;;;;;;;23.10;15.30;;;;;;;5.67;77.19;99631.61;130285;1259;108749;-79
2024/03/11 08:26:11;;;;;;;23.20;15.10;;;;;;;5.72;77.28;99633.45;130294;1259;108620;-79
2024/03/11 08:29:17;;;;;;;26.30;17.50;;;;;;;5.72;77.43;99631.98;130324;1262;106726;-79
2024/03/11 08:32:23;;;;;;;23.80;15.90;;;;;;;5.76;77.49;99632.93;130245;1262;106888;-79
2024/03/11 08:35:29;;;;;;;26.80;17.70;;;;;;;5.78;77.84;99638.51;130249;1259;108357;-79
2024/03/11 08:38:35;;;;;;;31.70;21.10;;;;;;;5.73;77.70;99640.42;130309;1259;107064;-79
2024/03/11 08:41:41;;;;;;;23.30;14.40;;;;;;;5.67;77.83;99643.02;130290;1259;106542;-78
2024/03/11 08:44:47;;;;;;;24.40;14.50;;;;;;;5.66;77.95;99646.63;130308;1259;108715;-79
2024/03/11 08:47:54;;;;;;;27.70;16.20;;;;;;;5.67;78.50;99647.99;130328;1262;107764;-79
2024/03/11 08:50:59;;;;;;;25.80;17.00;;;;;;;5.71;78.56;99653.13;130274;1262;107444;-79
2024/03/11 08:54:05;;;;;;;31.30;19.50;;;;;;;5.75;78.37;99646.56;130259;1259;108825;-79
2024/03/11 08:57:12;;;;;;;36.00;21.50;;;;;;;5.79;78.45;99652.08;130299;1262;107569;-79
2024/03/11 09:00:18;;;;;;;27.90;17.10;;;;;;;5.79;78.39;99644.59;130281;1260;108619;-79
2024/03/11 09:03:24;;;;;;;27.50;17.40;;;;;;;5.81;78.70;99644.85;130303;1262;108862;-81
2024/03/11 09:06:30;;;;;;;24.70;16.70;;;;;;;5.82;78.60;99642.89;130350;1262;106819;-80
2024/03/11 09:09:35;;;;;;;31.40;17.60;;;;;;;5.83;78.44;99647.11;130371;1259;106758;-80
2024/03/11 09:12:42;;;;;;;32.70;17.80;;;;;;;5.82;78.50;99645.63;130392;1262;108819;-80
2024/03/11 09:15:49;;;;;;;29.20;17.30;;;;;;;5.86;78.66;99642.70;130262;1262;106450;-80
2024/03/11 09:18:55;;;;;;;28.60;17.20;;;;;;;5.92;78.72;99644.49;130290;1262;107684;-80
2024/03/11 09:22:02;;;;;;;24.90;15.70;;;;;;;5.99;78.53;99642.70;130324;1262;108684;-80
2024/03/11 09:25:09;;;;;;;34.00;21.90;;;;;;;6.06;78.40;99642.22;130273;1262;108680;-80
2024/03/11 09:28:17;;;;;;;25.50;17.40;;;;;;;6.12;78.48;99643.48;130303;1262;107783;-80
2024/03/11 09:31:23;;;;;;;35.70;21.00;;;;;;;6.16;78.46;99646.80;130062;1258;311327;-80
2024/03/11 09:34:29;;;;;;;27.40;17.10;;;;;;;6.20;78.07;99640.45;130379;1259;107937;-80
2024/03/11 09:37:35;;;;;;;25.60;16.60;;;;;;;6.24;78.45;99638.11;130412;1262;108691;-80
2024/03/11 09:40:41;;;;;;;24.30;14.90;;;;;;;6.26;78.30;99635.94;130350;1264;109365;-80
2024/03/11 09:43:49;;;;;;;40.70;23.70;;;;;;;6.34;77.99;99637.54;130381;1262;107518;-78
2024/03/11 09:46:55;;;;;;;37.20;26.10;;;;;;;6.43;78.21;99639.38;130234;1262;107732;-78
2024/03/11 09:50:02;;;;;;;27.00;17.50;;;;;;;6.52;77.99;99640.67;130276;1262;106709;-78
2024/03/11 09:53:12;;;;;;;26.50;17.20;;;;;;;6.58;78.04;99635.86;130249;1262;108710;-78
2024/03/11 09:56:18;;;;;;;28.90;17.50;;;;;;;6.57;77.92;99635.61;130264;1259;106478;-78
2024/03/11 09:59:25;;;;;;;25.00;16.90;;;;;;;6.58;77.96;99631.98;130293;1262;108616;-78
2024/03/11 10:02:32;;;;;;;24.70;17.00;;;;;;;6.49;77.72;99631.05;130352;1262;108697;-78
2024/03/11 10:05:38;;;;;;;26.20;17.50;;;;;;;6.45;78.00;99626.33;130296;1259;106769;-80
2024/03/11 10:08:47;;;;;;;28.70;20.60;;;;;;;6.46;78.15;99623.05;130231;1262;108606;-78
2024/03/11 10:12:07;;;;;;;32.10;20.30;;;;;;;6.49;78.35;99617.13;130280;1264;108672;-78
2024/03/11 10:15:27;;;;;;;30.40;19.20;;;;;;;6.54;78.26;99615.95;130249;1262;108602;-78
2024/03/11 10:18:36;;;;;;;30.00;20.30;;;;;;;6.56;78.10;99616.67;130315;1262;108298;-79
2024/03/11 10:21:42;;;;;;;31.70;20.60;;;;;;;6.54;78.40;99614.86;130282;1262;106818;-78
2024/03/11 10:24:48;;;;;;;36.30;22.90;;;;;;;6.59;78.48;99616.02;130331;1259;106256;-78
2024/03/11 10:27:55;;;;;;;34.70;21.50;;;;;;;6.63;78.38;99615.39;130285;1272;107501;-78
2024/03/11 10:31:00;;;;;;;30.10;20.00;;;;;;;6.65;78.36;99616.79;130301;1259;108745;-78
2024/03/11 10:34:13;;;;;;;35.90;21.30;;;;;;;6.69;78.20;99613.27;130265;1262;107679;-79
2024/03/11 10:37:21;;;;;;;33.60;19.40;;;;;;;6.75;78.30;99610.83;130269;1262;108661;-78
2024/03/11 10:40:32;;;;;;;36.50;20.00;;;;;;;6.90;78.09;99614.53;130289;1261;107481;-78
2024/03/11 10:43:38;;;;;;;28.40;17.60;;;;;;;7.04;77.58;99618.11;130278;1262;107419;-79
2024/03/11 10:46:44;;;;;;;25.20;16.90;;;;;;;7.15;77.49;99615.14;130284;1260;107670;-79
2024/03/11 10:49:53;;;;;;;23.20;17.00;;;;;;;7.14;77.18;99605.31;130277;1262;107524;-79
2024/03/11 10:52:59;;;;;;;28.40;17.70;;;;;;;7.08;77.17;99603.05;130308;1262;108941;-79
2024/03/11 10:56:11;;;;;;;25.40;17.70;;;;;;;6.99;77.17;99611.11;130263;1262;108648;-78
2024/03/11 10:59:18;;;;;;;24.30;17.40;;;;;;;6.84;77.14;99619.63;130295;1262;108657;-78
2024/03/11 11:02:25;;;;;;;25.40;17.40;;;;;;;6.77;77.50;99625.24;130334;1262;107538;-79
2024/03/11 11:05:33;;;;;;;26.70;17.40;;;;;;;6.73;77.77;99628.29;130302;1262;106658;-78
2024/03/11 11:08:42;;;;;;;25.90;16.80;;;;;;;6.63;77.75;99621.95;130326;1262;106352;-78
2024/03/11 11:11:51;;;;;;;25.80;16.00;;;;;;;6.61;78.10;99621.77;130329;1262;107342;-78
2024/03/11 11:14:56;;;;;;;26.00;17.10;;;;;;;6.69;78.04;99628.48;130302;1259;107818;-79
2024/03/11 11:18:07;;;;;;;25.00;17.50;;;;;;;6.81;77.66;99626.85;130298;1262;108595;-79
2024/03/11 11:21:16;;;;;;;31.40;20.70;;;;;;;6.93;77.73;99623.93;130273;1259;106504;-79
2024/03/11 11:24:29;;;;;;;29.80;21.70;;;;;;;7.04;77.50;99621.66;130331;1262;107612;-79
2024/03/11 11:27:37;;;;;;;30.30;21.80;;;;;;;7.05;77.20;99624.73;130324;1262;108238;-78
2024/03/11 11:30:44;;;;;;;29.90;20.20;;;;;;;7.10;77.33;99623.77;130285;1259;107732;-78
2024/03/11 11:33:54;;;;;;;26.20;18.10;;;;;;;7.07;77.28;99619.41;130248;1262;107909;-78
2024/03/11 11:37:02;;;;;;;31.10;20.50;;;;;;;6.96;77.24;99627.52;130304;1259;108477;-79
2024/03/11 11:40:32;;;;;;;26.90;18.70;;;;;;;6.90;77.32;99625.25;130293;1262;108710;-78
2024/03/11 11:43:46;;;;;;;28.50;17.70;;;;;;;6.80;77.54;99625.20;130328;1262;106625;-79
2024/03/11 11:46:51;;;;;;;32.30;19.70;;;;;;;6.79;77.72;99626.71;130267;1262;108796;-79
2024/03/11 11:49:57;;;;;;;28.40;18.90;;;;;;;6.81;77.42;99630.55;130222;1259;107796;-79
2024/03/11 11:53:04;;;;;;;31.70;20.00;;;;;;;6.87;77.70;99634.09;130294;1262;106716;-78
2024/03/11 11:56:11;;;;;;;28.20;19.10;;;;;;;6.83;77.20;99635.52;130249;1259;107604;-79
2024/03/11 11:59:20;;;;;;;31.90;20.60;;;;;;;6.80;77.06;99635.64;130287;1262;108277;-78
2024/03/11 12:02:28;;;;;;;33.50;20.50;;;;;;;6.79;77.48;99639.60;130270;1262;107513;-79
2024/03/11 12:05:34;;;;;;;36.90;23.00;;;;;;;6.83;77.24;99639.04;130314;1262;105576;-79
2024/03/11 12:08:41;;;;;;;35.30;22.70;;;;;;;6.86;77.36;99638.02;130299;1259;106661;-79
2024/03/11 12:11:49;;;;;;;28.70;19.20;;;;;;;6.87;77.40;99637.06;130288;1262;107882;-78
2024/03/11 12:14:55;;;;;;;28.80;18.50;;;;;;;6.85;77.32;99633.14;130246;1262;107580;-78
2024/03/11 12:18:02;;;;;;;27.90;19.60;;;;;;;6.91;77.20;99629.27;130229;1261;106550;-78
2024/03/11 12:21:11;;;;;;;32.50;21.30;;;;;;;6.97;77.01;99633.60;130232;1262;108756;-78
2024/03/11 12:24:17;;;;;;;25.90;17.20;;;;;;;7.07;76.77;99628.77;130317;1263;106478;-78
2024/03/11 12:27:23;;;;;;;26.70;19.20;;;;;;;7.10;76.78;99623.39;130236;1260;108639;-80
2024/03/11 12:30:34;;;;;;;29.80;20.50;;;;;;;7.24;77.12;99624.05;130221;1273;107714;-78
2024/03/11 12:33:44;;;;;;;29.80;19.60;;;;;;;7.31;76.61;99628.15;130308;1262;107849;-78
2024/03/11 12:36:51;;;;;;;29.70;20.20;;;;;;;7.33;76.68;99629.84;130309;1259;108688;-78
2024/03/11 12:39:56;;;;;;;26.80;19.30;;;;;;;7.37;76.58;99633.02;130321;1260;107914;-79
2024/03/11 12:43:14;;;;;;;28.00;20.10;;;;;;;7.33;76.59;99631.80;130277;1260;108426;-79
2024/03/11 12:46:20;;;;;;;27.20;19.90;;;;;;;7.27;76.87;99631.20;130241;1259;108343;-78
2024/03/11 12:49:27;;;;;;;25.20;17.80;;;;;;;7.24;76.78;99630.03;130234;1262;107717;-78
2024/03/11 12:52:34;;;;;;;24.20;16.80;;;;;;;7.25;76.67;99627.42;130302;1262;108608;-79
2024/03/11 12:55:40;;;;;;;24.40;18.00;;;;;;;7.29;76.48;99626.54;130238;1260;108639;-78
2024/03/11 12:58:46;;;;;;;25.30;18.00;;;;;;;7.32;76.38;99633.30;130254;1260;108556;-78
2024/03/11 13:02:07;;;;;;;24.50;17.60;;;;;;;7.35;76.28;99628.64;130340;1261;106730;-79
2024/03/11 13:05:16;;;;;;;23.40;17.60;;;;;;;7.34;76.33;99628.06;130236;1262;107720;-79
2024/03/11 13:08:23;;;;;;;24.30;17.70;;;;;;;7.35;76.61;99624.58;130341;1261;108700;-79
2024/03/11 13:11:29;;;;;;;24.50;16.60;;;;;;;7.40;76.27;99621.79;130290;1259;107748;-79
2024/03/11 13:14:35;;;;;;;25.40;17.70;;;;;;;7.43;76.22;99622.72;130230;1260;108682;-79
2024/03/11 13:17:41;;;;;;;28.00;17.10;;;;;;;7.48;76.30;99626.14;130231;1262;107488;-79
2024/03/11 13:20:50;;;;;;;24.10;17.40;;;;;;;7.46;76.21;99619.94;130257;1262;108642;-79
2024/03/11 13:23:57;;;;;;;24.90;16.70;;;;;;;7.48;76.18;99616.34;130322;1262;108097;-79
2024/03/11 13:27:04;;;;;;;23.40;16.50;;;;;;;7.49;76.44;99614.86;130298;1262;108901;-79
2024/03/11 13:30:12;;;;;;;24.30;16.10;;;;;;;7.46;76.01;99618.48;130278;1263;106888;-79
2024/03/11 13:33:18;;;;;;;23.00;14.40;;;;;;;7.46;76.58;99617.63;130248;1262;107028;-79
2024/03/11 13:36:23;;;;;;;28.70;17.90;;;;;;;7.54;76.65;99617.77;130253;1262;108797;-79
2024/03/11 13:39:35;;;;;;;27.80;18.90;;;;;;;7.61;76.57;99611.96;130296;1260;107965;-80
2024/03/11 13:42:41;;;;;;;28.20;18.90;;;;;;;7.70;76.44;99612.50;130273;1262;108509;-79
2024/03/11 13:45:50;;;;;;;29.60;19.40;;;;;;;7.73;76.23;99612.70;130256;1263;108923;-79
2024/03/11 13:48:56;;;;;;;31.10;19.00;;;;;;;7.74;76.07;99614.77;130285;1270;107776;-79
2024/03/11 13:52:12;;;;;;;26.80;17.70;;;;;;;7.70;76.13;99614.11;130251;1265;107518;-80
2024/03/11 13:55:18;;;;;;;25.00;16.20;;;;;;;7.66;76.02;99612.86;130277;1264;108027;-79
2024/03/11 13:58:26;;;;;;;25.40;16.90;;;;;;;7.66;76.42;99613.79;130335;1266;106397;-79
2024/03/11 14:01:32;;;;;;;24.40;17.20;;;;;;;7.63;75.96;99610.55;130277;1262;107633;-79
2024/03/11 14:04:39;;;;;;;25.40;17.10;;;;;;;7.55;75.95;99608.16;130334;1262;106332;-79
2024/03/11 14:07:47;;;;;;;44.30;30.50;;;;;;;7.44;76.22;99611.63;130396;1264;106324;-79
2024/03/11 14:10:52;;;;;;;34.60;20.40;;;;;;;7.38;76.27;99612.98;130298;1262;108643;-79